createdAt,value
2018-05-23T00:02:09.059Z,68.74
2018-05-23T00:04:36.868Z,68.69
2018-05-23T00:07:04.683Z,68.70
2018-05-23T00:09:32.454Z,68.95
2018-05-23T00:12:00.167Z,69.31
2018-05-23T00:14:27.875Z,70.98
2018-05-23T00:16:55.534Z,70.87
2018-05-23T00:19:23.308Z,70.30
2018-05-23T00:21:51.034Z,70.46
2018-05-23T00:24:18.734Z,70.88
2018-05-23T00:26:46.499Z,70.71
2018-05-23T00:29:14.310Z,71.24
2018-05-23T00:31:42.131Z,71.51
2018-05-23T00:34:09.943Z,72.01
2018-05-23T00:36:37.760Z,71.50
2018-05-23T00:39:06.449Z,71.02
2018-05-23T00:41:34.171Z,70.65
2018-05-23T00:44:01.976Z,71.04
2018-05-23T00:46:29.642Z,71.41
2018-05-23T00:48:57.394Z,71.08
2018-05-23T00:51:25.110Z,70.58
2018-05-23T00:53:52.825Z,70.31
2018-05-23T00:56:20.545Z,69.91
2018-05-23T00:58:48.360Z,69.77
2018-05-23T01:01:16.018Z,69.65
2018-05-23T01:03:43.744Z,69.53
2018-05-23T01:06:11.448Z,69.41
2018-05-23T01:08:39.302Z,69.54
2018-05-23T01:11:07.027Z,69.31
2018-05-23T01:13:34.844Z,69.66
2018-05-23T01:16:02.609Z,69.65
2018-05-23T01:18:30.421Z,69.89
2018-05-23T01:20:58.240Z,70.14
2018-05-23T01:23:26.055Z,69.99
2018-05-23T01:25:53.871Z,69.88
2018-05-23T01:28:21.636Z,69.82
2018-05-23T01:30:49.355Z,69.84
2018-05-23T01:33:17.067Z,69.71
2018-05-23T01:35:44.929Z,69.90
2018-05-23T01:38:12.694Z,69.61
2018-05-23T01:40:40.398Z,69.19
2018-05-23T01:43:08.122Z,69.24
2018-05-23T01:45:35.781Z,69.90
2018-05-23T01:48:03.547Z,69.90
2018-05-23T01:50:31.264Z,69.21
2018-05-23T01:52:59.076Z,69.50
2018-05-23T01:55:26.942Z,70.00
2018-05-23T01:57:54.708Z,70.41
2018-05-23T02:00:22.364Z,71.21
2018-05-23T02:02:50.032Z,70.93
2018-05-23T02:05:17.694Z,70.99
2018-05-23T02:07:45.346Z,71.37
2018-05-23T02:10:13.018Z,71.73
2018-05-23T02:12:40.783Z,71.38
2018-05-23T02:15:08.550Z,71.44
2018-05-23T02:17:36.274Z,71.02
2018-05-23T02:20:04.079Z,70.89
2018-05-23T02:22:31.741Z,70.82
2018-05-23T02:24:59.607Z,70.77
2018-05-23T02:27:27.373Z,71.09
2018-05-23T02:29:55.237Z,70.84
2018-05-23T02:32:23.000Z,70.83
2018-05-23T02:34:50.871Z,70.72
2018-05-23T02:37:18.633Z,70.31
2018-05-23T02:39:46.502Z,70.90
2018-05-23T02:42:14.263Z,70.88
2018-05-23T02:44:42.131Z,70.91
2018-05-23T02:47:10.001Z,70.95
2018-05-23T02:49:37.773Z,69.90
2018-05-23T02:52:05.531Z,70.41
2018-05-23T02:54:33.291Z,70.52
2018-05-23T02:57:01.016Z,70.53
2018-05-23T02:59:28.819Z,70.19
2018-05-23T03:01:56.482Z,69.62
2018-05-23T03:04:24.251Z,70.12
2018-05-23T03:06:51.958Z,69.65
2018-05-23T03:09:19.777Z,69.95
2018-05-23T03:11:47.436Z,70.38
2018-05-23T03:14:15.160Z,70.32
2018-05-23T03:16:42.853Z,70.24
2018-05-23T03:19:10.525Z,70.22
2018-05-23T03:21:38.292Z,70.99
2018-05-23T03:24:06.261Z,70.63
2018-05-23T03:26:33.922Z,69.97
2018-05-23T03:29:01.688Z,70.04
2018-05-23T03:31:29.401Z,69.81
2018-05-23T03:33:57.217Z,69.55
2018-05-23T03:36:24.935Z,69.40
2018-05-23T03:38:52.748Z,68.74
2018-05-23T03:41:20.469Z,68.85
2018-05-23T03:43:48.274Z,69.41
2018-05-23T03:46:16.039Z,70.52
2018-05-23T03:48:43.805Z,69.60
2018-05-23T03:51:11.560Z,69.43
2018-05-23T03:53:39.376Z,70.26
2018-05-23T03:56:07.200Z,69.80
2018-05-23T03:58:34.964Z,69.72
2018-05-23T04:01:14.607Z,69.38
2018-05-23T04:03:54.249Z,69.90
2018-05-23T04:09:25.311Z,69.13
2018-05-23T04:11:53.076Z,68.84
2018-05-23T04:14:20.897Z,68.48
2018-05-23T04:16:48.707Z,68.61
2018-05-23T04:19:16.428Z,68.34
2018-05-23T04:21:44.137Z,68.29
2018-05-23T04:24:11.900Z,68.21
2018-05-23T04:26:39.605Z,68.47
2018-05-23T04:29:07.428Z,68.44
2018-05-23T04:31:35.302Z,68.15
2018-05-23T04:34:03.059Z,67.93
2018-05-23T04:36:30.724Z,67.73
2018-05-23T04:38:58.486Z,67.86
2018-05-23T04:41:26.252Z,67.75
2018-05-23T04:43:53.976Z,67.81
2018-05-23T04:46:21.741Z,67.97
2018-05-23T04:48:49.570Z,67.58
2018-05-23T04:51:17.411Z,68.08
2018-05-23T04:53:45.177Z,68.47
2018-05-23T04:56:12.937Z,67.79
2018-05-23T04:58:40.704Z,67.72
2018-05-23T05:01:08.470Z,67.94
2018-05-23T05:03:36.179Z,67.68
2018-05-23T05:06:04.207Z,69.23
2018-05-23T05:08:31.967Z,70.05
2018-05-23T05:10:59.840Z,69.08
2018-05-23T05:13:27.601Z,69.28
2018-05-23T05:15:55.467Z,68.90
2018-05-23T05:18:23.231Z,69.33
2018-05-23T05:20:50.995Z,69.14
2018-05-23T05:23:18.658Z,68.33
2018-05-23T05:25:46.527Z,68.03
2018-05-23T05:28:14.249Z,67.55
2018-05-23T05:30:42.056Z,68.43
2018-05-23T05:33:09.819Z,69.33
2018-05-23T05:35:37.653Z,70.33
2018-05-23T05:38:05.451Z,70.19
2018-05-23T05:40:33.316Z,70.53
2018-05-23T05:43:00.979Z,71.60
2018-05-23T05:45:28.842Z,72.16
2018-05-23T05:47:56.510Z,72.33
2018-05-23T05:50:24.375Z,73.13
2018-05-23T05:52:52.091Z,73.50
2018-05-23T05:55:19.903Z,71.48
2018-05-23T05:57:47.668Z,72.34
2018-05-23T06:00:15.433Z,72.84
2018-05-23T06:02:43.158Z,72.19
2018-05-23T06:05:10.963Z,71.32
2018-05-23T06:07:38.624Z,71.28
2018-05-23T06:10:06.338Z,69.97
2018-05-23T06:12:34.154Z,70.30
2018-05-23T06:15:01.968Z,71.08
2018-05-23T06:17:29.735Z,70.94
2018-05-23T06:19:57.550Z,70.92
2018-05-23T06:22:25.242Z,70.23
2018-05-23T06:24:53.077Z,70.64
2018-05-23T06:27:20.806Z,70.40
2018-05-23T06:29:48.544Z,70.44
2018-05-23T06:32:16.269Z,71.44
2018-05-23T06:34:43.935Z,70.79
2018-05-23T06:37:11.798Z,71.27
2018-05-23T06:39:39.511Z,70.97
2018-05-23T06:42:07.327Z,71.08
2018-05-23T06:44:35.092Z,70.62
2018-05-23T06:47:02.856Z,70.58
2018-05-23T06:49:30.603Z,70.27
2018-05-23T06:51:58.281Z,69.81
2018-05-23T06:54:25.945Z,69.28
2018-05-23T06:56:53.607Z,69.64
2018-05-23T06:59:21.272Z,69.67
2018-05-23T07:01:49.136Z,68.99
2018-05-23T07:04:16.854Z,69.50
2018-05-23T07:06:44.563Z,69.18
2018-05-23T07:09:12.225Z,69.44
2018-05-23T07:11:39.995Z,69.22
2018-05-23T07:14:07.754Z,68.44
2018-05-23T07:16:35.519Z,69.74
2018-05-23T07:19:03.283Z,68.62
2018-05-23T07:21:31.150Z,68.81
2018-05-23T07:23:58.864Z,68.39
2018-05-23T07:26:26.682Z,68.71
2018-05-23T07:28:54.433Z,67.31
2018-05-23T07:31:22.495Z,67.31
2018-05-23T07:33:50.156Z,67.43
2018-05-23T07:36:17.946Z,66.98
2018-05-23T07:38:45.706Z,67.55
2018-05-23T07:41:13.580Z,66.43
2018-05-23T07:43:41.439Z,66.49
2018-05-23T07:46:09.307Z,66.81
2018-05-23T07:48:37.033Z,66.29
2018-05-23T07:51:04.839Z,66.96
2018-05-23T07:53:32.608Z,66.76
2018-05-23T07:56:00.468Z,66.79
2018-05-23T07:58:28.169Z,67.78
2018-05-23T08:00:55.920Z,67.26
2018-05-23T08:03:23.862Z,67.45
2018-05-23T08:05:51.627Z,67.33
2018-05-23T08:08:19.343Z,66.85
2018-05-23T08:10:47.157Z,66.84
2018-05-23T08:13:14.819Z,66.57
2018-05-23T08:15:42.583Z,65.74
2018-05-23T08:18:10.348Z,65.05
2018-05-23T08:20:38.051Z,64.70
2018-05-23T08:23:05.662Z,65.17
2018-05-23T08:25:33.335Z,64.74
2018-05-23T08:28:00.996Z,64.51
2018-05-23T08:30:28.756Z,64.21
2018-05-23T08:32:56.525Z,64.70
2018-05-23T08:35:24.185Z,65.54
2018-05-23T08:37:51.849Z,65.18
2018-05-23T08:40:19.720Z,63.91
2018-05-23T08:42:47.382Z,63.27
2018-05-23T08:45:15.143Z,62.71
2018-05-23T08:47:42.908Z,63.10
2018-05-23T08:50:10.674Z,63.11
2018-05-23T08:52:38.499Z,63.63
2018-05-23T08:55:06.196Z,63.50
2018-05-23T08:57:33.966Z,64.00
2018-05-23T09:00:01.622Z,65.11
2018-05-23T09:02:29.393Z,65.85
2018-05-23T09:04:57.009Z,66.22
2018-05-23T09:07:24.716Z,66.62
2018-05-23T09:09:52.438Z,66.80
2018-05-23T09:12:20.458Z,67.46
2018-05-23T09:14:48.113Z,67.73
2018-05-23T09:17:15.864Z,67.87
2018-05-23T09:19:43.586Z,67.65
2018-05-23T09:22:11.307Z,66.50
2018-05-23T09:24:39.069Z,66.08
2018-05-23T09:27:06.729Z,65.03
2018-05-23T09:29:34.494Z,65.92
2018-05-23T09:32:02.259Z,66.96
2018-05-23T09:34:29.916Z,66.29
2018-05-23T09:36:57.583Z,65.40
2018-05-23T09:39:25.244Z,63.92
2018-05-23T09:41:52.958Z,65.49
2018-05-23T09:44:20.777Z,64.22
2018-05-23T09:46:48.642Z,64.39
2018-05-23T09:49:16.385Z,65.57
2018-05-23T09:51:44.108Z,66.96
2018-05-23T09:54:11.944Z,65.92
2018-05-23T09:56:39.691Z,66.67
2018-05-23T09:59:07.464Z,67.71
2018-05-23T10:01:35.898Z,67.22
2018-05-23T10:04:03.711Z,68.25
2018-05-23T10:06:31.477Z,67.81
2018-05-23T10:08:59.238Z,67.90
2018-05-23T10:11:26.894Z,69.14
2018-05-23T10:13:54.563Z,67.14
2018-05-23T10:16:22.329Z,66.56
2018-05-23T10:18:50.092Z,63.50
2018-05-23T10:21:17.754Z,65.06
2018-05-23T10:23:45.520Z,64.05
2018-05-23T10:26:13.282Z,64.28
2018-05-23T10:28:40.944Z,64.88
2018-05-23T10:31:08.712Z,63.67
2018-05-23T10:33:36.374Z,64.02
2018-05-23T10:36:04.239Z,63.55
2018-05-23T10:38:31.947Z,62.17
2018-05-23T10:40:59.667Z,63.62
2018-05-23T10:43:27.324Z,63.41
2018-05-23T10:45:54.982Z,63.52
2018-05-23T10:48:22.713Z,62.64
2018-05-23T10:50:50.982Z,62.06
2018-05-23T10:53:18.796Z,61.58
2018-05-23T10:55:46.458Z,62.14
2018-05-23T10:58:14.329Z,60.62
2018-05-23T11:00:42.093Z,60.25
2018-05-23T11:03:10.464Z,60.15
2018-05-23T11:05:38.332Z,58.21
2018-05-23T11:08:05.998Z,58.41
2018-05-23T11:10:33.716Z,56.64
2018-05-23T11:13:01.435Z,55.81
2018-05-23T11:15:29.189Z,54.67
2018-05-23T11:17:56.945Z,53.61
2018-05-23T11:20:24.711Z,52.05
2018-05-23T11:22:52.378Z,50.28
2018-05-23T11:25:20.042Z,49.89
2018-05-23T11:27:47.910Z,47.30
2018-05-23T11:30:15.674Z,48.72
2018-05-23T11:32:43.397Z,45.33
2018-05-23T11:35:11.204Z,46.70
2018-05-23T11:37:38.976Z,48.02
2018-05-23T11:40:06.734Z,48.48
2018-05-23T11:42:34.598Z,48.79
2018-05-23T11:45:02.257Z,48.24
2018-05-23T11:47:29.913Z,48.90
2018-05-23T11:49:57.641Z,48.55
2018-05-23T11:52:25.453Z,49.48
2018-05-23T11:54:53.216Z,48.72
2018-05-23T11:57:20.879Z,48.49
2018-05-23T11:59:48.588Z,47.44
2018-05-23T12:02:16.716Z,48.98
2018-05-23T12:04:44.486Z,50.75
2018-05-23T12:07:12.243Z,48.96
2018-05-23T12:09:39.952Z,47.46
2018-05-23T12:12:07.673Z,50.01
2018-05-23T12:14:35.331Z,50.17
2018-05-23T12:17:03.098Z,48.29
2018-05-23T12:19:31.061Z,48.27
2018-05-23T12:21:58.831Z,46.56
2018-05-23T12:24:26.699Z,47.02
2018-05-23T12:26:54.776Z,46.08
2018-05-23T12:29:22.429Z,47.18
2018-05-23T12:31:50.075Z,45.93
2018-05-23T12:34:17.859Z,46.05
2018-05-23T12:36:45.527Z,46.23
2018-05-23T12:39:13.284Z,44.65
2018-05-23T12:41:41.049Z,43.70
2018-05-23T12:44:08.812Z,42.84
2018-05-23T12:46:36.579Z,42.48
2018-05-23T12:49:04.241Z,41.52
2018-05-23T12:51:32.113Z,44.57
2018-05-23T12:53:59.872Z,41.25
2018-05-23T12:56:27.739Z,39.94
2018-05-23T12:58:55.598Z,40.15
2018-05-23T13:01:23.361Z,40.34
2018-05-23T13:03:51.078Z,45.67
2018-05-23T13:06:18.896Z,44.61
2018-05-23T13:08:46.667Z,42.10
2018-05-23T13:11:14.334Z,42.79
2018-05-23T13:13:42.132Z,40.20
2018-05-23T13:16:09.949Z,40.37
2018-05-23T13:18:37.815Z,42.08
2018-05-23T13:21:05.610Z,41.77
2018-05-23T13:23:33.457Z,43.08
2018-05-23T13:26:01.281Z,41.45
2018-05-23T13:28:29.057Z,41.62
2018-05-23T13:30:56.794Z,42.47
2018-05-23T13:33:24.620Z,42.76
2018-05-23T13:35:52.451Z,41.87
2018-05-23T13:38:20.486Z,41.76
2018-05-23T13:40:48.258Z,41.67
2018-05-23T13:43:16.088Z,41.41
2018-05-23T13:45:43.797Z,40.61
2018-05-23T13:48:11.613Z,38.73
2018-05-23T13:50:39.353Z,38.11
2018-05-23T13:53:07.039Z,41.04
2018-05-23T13:55:35.009Z,41.01
2018-05-23T13:58:02.793Z,41.24
2018-05-23T14:00:30.742Z,39.59
2018-05-23T14:02:58.705Z,39.76
2018-05-23T14:05:26.682Z,39.49
2018-05-23T14:07:54.623Z,38.74
2018-05-23T14:10:22.334Z,38.18
2018-05-23T14:12:50.613Z,40.40
2018-05-23T14:15:18.425Z,39.17
2018-05-23T14:17:46.404Z,39.23
2018-05-23T14:20:14.191Z,39.64
2018-05-23T14:22:41.851Z,43.28
2018-05-23T14:25:15.556Z,43.54
2018-05-23T14:27:43.218Z,43.56
2018-05-23T14:30:11.092Z,44.09
2018-05-23T14:32:38.952Z,44.91
2018-05-23T14:35:06.607Z,44.98
2018-05-23T14:37:34.379Z,44.09
2018-05-23T14:40:02.144Z,43.00
2018-05-23T14:42:30.112Z,41.74
2018-05-23T14:44:57.882Z,42.06
2018-05-23T14:47:25.642Z,42.14
2018-05-23T14:49:53.714Z,42.87
2018-05-23T14:52:21.478Z,43.54
2018-05-23T14:54:49.227Z,43.61
2018-05-23T14:57:17.242Z,44.81
2018-05-23T14:59:44.983Z,45.60
2018-05-23T15:02:12.947Z,45.71
2018-05-23T15:04:40.655Z,46.17
2018-05-23T15:07:08.566Z,51.37
2018-05-23T15:09:36.409Z,73.16
2018-05-23T15:12:04.066Z,88.58
2018-05-23T15:14:31.679Z,100.00
2018-05-23T15:16:59.351Z,100.00
2018-05-23T15:19:26.974Z,100.00
2018-05-23T15:21:54.602Z,100.00
2018-05-23T15:24:22.276Z,100.00
2018-05-23T15:26:49.906Z,100.00
2018-05-23T15:29:17.640Z,100.00
2018-05-23T15:31:45.321Z,100.00
2018-05-23T15:34:13.048Z,100.00
2018-05-23T15:36:40.688Z,100.00
2018-05-23T15:39:08.411Z,100.00
2018-05-23T15:41:36.189Z,100.00
2018-05-23T15:44:03.867Z,100.00
2018-05-23T15:46:31.513Z,100.00
2018-05-23T15:48:59.197Z,100.00
2018-05-23T15:51:26.893Z,100.00
2018-05-23T15:53:54.596Z,100.00
